Flight Track Log - Related Links

Times and Time Zones

All times are in EDT time to prevent confusion due to time zone crossing. See the EMD21 flight status page for this flight to view local times or setup timezone preferences in your user account.

Time Position Orientation Groundspeed Altitude Reporting Facility
EDT Latitude Longitude Course Direction KTS MPH feet Rate Location/Type
Tue 09:30:53 PM 34.9697 -95.9086 293° West 208 239 4,900  Level Fort Worth Center
Tue 09:31:53 PM 34.9931 -95.9561 301° West 183 211 6,000 1,100 Climbing Fort Worth Center
Tue 09:32:53 PM 35.0064 -96.0144 286° West 177 204 7,100 1,100 Climbing Fort Worth Center
Tue 09:33:53 PM 35.0258 -96.0697 293° West 177 204 8,200 1,150 Climbing Fort Worth Center
Tue 09:34:53 PM 35.0431 -96.1228 292° West 177 204 9,400 950 Climbing Fort Worth Center
Tue 09:35:00 PM 34.9845 -96.0880 287° West  Level FlightAware Approximate
Tue 09:35:53 PM 35.0603 -96.1783 291° West 172 198 10,100  Level Fort Worth Center
Tue 09:36:00 PM 35.0009 -96.1526 293° West  Level FlightAware Approximate
Tue 09:36:53 PM 35.0817 -96.2439 292° West 186 214 10,000  Level Fort Worth Center
Tue 09:37:53 PM 35.1053 -96.3122 293° West 203 234 10,000  Level Fort Worth Center
Tue 09:38:53 PM 35.1289 -96.3803 293° West 209 241 10,000  Level Fort Worth Center
Tue 09:39:53 PM 35.1481 -96.4486 289° West 215 247 10,000  Level Fort Worth Center
Tue 09:40:53 PM 35.1736 -96.5169 295° West 215 247 10,000 -76 Level Fort Worth Center
Tue 09:41:12 PM 35.1822 -96.5397 295° West 220 253 9,900  Descending Fort Worth Center
Tue 09:41:53 PM 35.1950 -96.5853 289° West 215 247 10,000  Climbing Fort Worth Center
Tue 09:42:53 PM 35.2183 -96.6564 292° West 215 247 9,900 -50 Descending Fort Worth Center
Tue 09:43:52 PM 35.2417 -96.7222 293° West 215 247 9,900 80 Level Fort Worth Center
Tue 09:44:08 PM 35.2522 -96.7372 311° West 222 255 10,000  Climbing Fort Worth Center
Tue 09:44:53 PM 35.2733 -96.7881 297° West 215 247 9,900 -200 Descending Fort Worth Center
Tue 09:45:08 PM 35.2817 -96.8108 294° West 220 253 9,800 -800 Descending Fort Worth Center
Tue 09:45:53 PM 35.2986 -96.8592 293° West 221 254 9,100 -822 Descending Fort Worth Center
Tue 09:46:21 PM 35.3133 -96.8919 299° West 239 275 8,800 -700 Descending Fort Worth Center
Tue 09:46:53 PM 35.3322 -96.9250 305° West 226 260 8,400 -873 Descending Fort Worth Center
Tue 09:47:16 PM 35.3428 -96.9531 295° West 232 267 8,000 -900 Descending Fort Worth Center
Tue 09:47:53 PM 35.3575 -96.9961 293° West 226 260 7,500 -727 Descending Fort Worth Center
Tue 09:48:22 PM 35.3722 -97.0342 295° West 225 259 7,200 -700 Descending Fort Worth Center
Tue 09:48:53 PM 35.3869 -97.0622 303° West 226 260 6,800 -1,082 Descending Fort Worth Center
Tue 09:49:23 PM 35.4039 -97.1003 299° West 220 253 6,100 -800 Descending Fort Worth Center
Tue 09:49:53 PM 35.4142 -97.1308 292° West 226 260 6,000 -197 Descending Fort Worth Center
Tue 09:50:24 PM 35.4269 -97.1689 292° West 215 247 5,900 -200 Descending Fort Worth Center
Tue 09:50:53 PM 35.4414 -97.1944 305° West 216 249 5,800 -700 Descending Fort Worth Center
Tue 09:51:24 PM 35.4561 -97.2328 295° West 210 242 5,200 -800 Descending Fort Worth Center
Tue 09:51:53 PM 35.4708 -97.2633 301° West 216 249 5,000 -295 Descending Fort Worth Center
Tue 09:52:25 PM 35.4811 -97.2989 290° West 221 254 4,900 -100 Descending Fort Worth Center
Tue 09:52:53 PM 35.4958 -97.3294 301° West 222 255 4,900 -400 Level Fort Worth Center
Tue 09:53:25 PM 35.5083 -97.3650 293° West 214 246 4,500 -700 Descending Fort Worth Center
Tue 09:53:53 PM 35.5208 -97.3881 304° West 222 255 4,200 -492 Descending Fort Worth Center
Tue 09:54:26 PM 35.5458 -97.4314 305° West 231 266 4,000 -200 Descending Fort Worth Center
Tue 09:54:53 PM 35.5625 -97.4467 323° Northwest 222 255 4,000  Level Fort Worth Center
Tue 09:55:27 PM 35.5939 -97.4800 319° Northwest 223 257 4,000  Level Fort Worth Center
Tue 09:55:53 PM 35.6083 -97.4953 319° Northwest 222 255 4,000 -100 Level Fort Worth Center
Tue 09:56:27 PM 35.6231 -97.5439 290° West 214 246 3,900 -653 Descending Fort Worth Center
Tue 09:57:34 PM 35.6103 -97.6178 258° West 209 241 2,900 -887 Descending Fort Worth Center
Tue 09:58:22 PM 35.5811 -97.6483 220° Southwest 161 185 2,200 -875 Descending Fort Worth Center
Tue 10:00:00 PM 35.5333 -97.6333 321° Northwest  Level FlightAware Approximate
Tue 10:07:00 PM 35.5342 -97.6471 321° Northwest  Level Estimated

Login

Don't have an account? Register now (free) for customized features, flight alerts, and more!